Time;durP1;ratioP1;P1;durP2;ratioP2;P2;SDS_P1;SDS_P2;PMS_P1;PMS_P2;Temp;Humidity;BMP_temperature;BMP_pressure;BME280_temperature;BME280_humidity;BME280_pressure;Samples;Min_cycle;Max_cycle;Signal;HPM_P1;HPM_P2
2024/01/05 00:01:13;;;;;;;7.37;2.27;;;5.90;99.90;;;;;;5039238;28;20269;-85
2024/01/05 00:03:39;;;;;;;7.57;2.03;;;5.90;99.90;;;;;;5038943;28;20260;-85
2024/01/05 00:06:05;;;;;;;5.63;2.00;;;5.90;99.90;;;;;;5028397;28;20209;-85
2024/01/05 00:08:30;;;;;;;4.50;1.90;;;5.90;99.90;;;;;;5026893;28;20178;-84
2024/01/05 00:10:56;;;;;;;7.20;2.17;;;6.00;99.90;;;;;;5025726;28;20256;-85
2024/01/05 00:13:22;;;;;;;5.03;2.00;;;6.00;99.90;;;;;;5026660;28;20194;-85
2024/01/05 00:15:47;;;;;;;5.20;1.90;;;6.00;99.90;;;;;;5025548;28;20174;-85
2024/01/05 00:18:13;;;;;;;5.97;2.03;;;6.00;99.90;;;;;;5028873;28;20185;-85
2024/01/05 00:20:39;;;;;;;5.53;2.07;;;6.00;99.90;;;;;;5028592;28;20299;-85
2024/01/05 00:23:04;;;;;;;3.60;1.73;;;6.00;99.90;;;;;;5027843;28;20211;-86
2024/01/05 00:25:30;;;;;;;7.53;2.07;;;6.00;99.90;;;;;;5032278;28;20251;-85
2024/01/05 00:27:55;;;;;;;4.90;1.80;;;6.00;99.90;;;;;;5028813;28;20193;-85
2024/01/05 00:30:21;;;;;;;4.60;1.70;;;6.00;99.90;;;;;;5027990;28;20269;-85
2024/01/05 00:32:47;;;;;;;3.53;1.67;;;6.10;99.90;;;;;;5036782;28;20231;-85
2024/01/05 00:35:12;;;;;;;7.13;1.60;;;6.00;99.90;;;;;;5037418;28;20188;-85
2024/01/05 00:37:38;;;;;;;4.37;1.90;;;6.10;99.90;;;;;;5030775;28;20193;-85
2024/01/05 00:40:04;;;;;;;7.23;1.90;;;6.10;99.90;;;;;;5024069;28;20217;-85
2024/01/05 00:42:30;;;;;;;6.23;2.10;;;6.10;99.90;;;;;;5024585;28;20281;-85
2024/01/05 00:44:55;;;;;;;8.43;1.90;;;6.20;99.90;;;;;;5025306;28;20206;-85
2024/01/05 00:47:21;;;;;;;4.43;2.10;;;6.20;99.90;;;;;;5037814;28;20206;-85
2024/01/05 00:49:46;;;;;;;6.77;1.80;;;6.20;99.90;;;;;;5027910;28;20210;-84
2024/01/05 00:52:15;;;;;;;6.70;1.83;;;6.20;99.90;;;;;;5024439;28;20193;-85
2024/01/05 00:54:40;;;;;;;5.60;1.63;;;6.20;99.90;;;;;;5023806;28;20636;-84
2024/01/05 00:57:06;;;;;;;7.73;1.80;;;6.20;99.90;;;;;;5035839;28;20182;-85
2024/01/05 00:59:32;;;;;;;7.37;1.70;;;6.20;99.90;;;;;;5030099;28;20213;-85
2024/01/05 01:01:57;;;;;;;6.03;1.83;;;6.20;99.90;;;;;;5023635;28;20319;-86
2024/01/05 01:04:23;;;;;;;4.57;1.70;;;6.30;99.90;;;;;;5030004;28;20185;-84
2024/01/05 01:06:49;;;;;;;7.97;2.00;;;6.30;99.90;;;;;;5034986;28;20282;-83
2024/01/05 01:09:15;;;;;;;6.40;2.10;;;6.30;99.90;;;;;;5027319;28;20201;-85
2024/01/05 01:11:41;;;;;;;8.53;1.97;;;6.30;99.90;;;;;;5028817;28;20175;-85
2024/01/05 01:14:06;;;;;;;7.03;1.90;;;6.40;99.90;;;;;;5025868;28;20210;-84
2024/01/05 01:16:32;;;;;;;5.57;1.90;;;6.40;99.90;;;;;;5026772;28;20223;-85
2024/01/05 01:18:58;;;;;;;8.60;1.87;;;6.40;99.90;;;;;;5026425;28;20209;-83
2024/01/05 01:21:24;;;;;;;7.00;2.10;;;6.40;99.90;;;;;;5022102;28;20193;-85
2024/01/05 01:23:51;;;;;;;9.30;2.50;;;6.40;99.90;;;;;;5023579;28;20559;-83
2024/01/05 01:26:16;;;;;;;11.03;2.00;;;6.40;99.90;;;;;;5027848;28;20201;-85
2024/01/05 01:28:42;;;;;;;7.73;2.13;;;6.50;99.90;;;;;;5033806;28;20232;-85
2024/01/05 01:31:08;;;;;;;7.57;1.90;;;6.50;99.90;;;;;;5031821;28;20206;-85
2024/01/05 01:33:33;;;;;;;7.10;1.90;;;6.50;99.90;;;;;;5023147;28;20187;-85
2024/01/05 01:35:59;;;;;;;2.90;1.70;;;6.50;99.90;;;;;;5022748;28;20185;-85
2024/01/05 01:38:24;;;;;;;4.40;1.53;;;6.50;99.90;;;;;;5024054;28;20182;-85
2024/01/05 01:40:50;;;;;;;6.63;1.60;;;6.50;99.90;;;;;;5022180;28;20228;-83
2024/01/05 01:43:26;;;;;;;5.37;1.60;;;6.40;99.90;;;;;;5027744;28;20193;-84
2024/01/05 01:45:55;;;;;;;7.73;1.90;;;6.40;99.90;;;;;;5025023;28;20268;-85
2024/01/05 01:48:21;;;;;;;8.47;1.90;;;6.50;99.90;;;;;;5022459;28;20273;-83
2024/01/05 01:50:48;;;;;;;7.43;1.70;;;6.40;99.90;;;;;;5023398;28;20282;-84
2024/01/05 01:53:16;;;;;;;3.80;1.47;;;6.50;99.90;;;;;;5033833;28;20567;-85
2024/01/05 01:55:43;;;;;;;5.00;2.10;;;6.50;99.90;;;;;;5033686;28;20186;-85
2024/01/05 01:58:09;;;;;;;8.67;1.67;;;6.60;99.90;;;;;;5019033;28;20217;-85
2024/01/05 02:00:34;;;;;;;9.97;1.87;;;6.60;99.90;;;;;;5025043;28;20199;-85
2024/01/05 02:03:03;;;;;;;5.83;2.00;;;6.60;99.90;;;;;;5033585;28;20185;-86
2024/01/05 02:05:29;;;;;;;5.57;2.00;;;6.60;99.90;;;;;;5034575;28;20182;-85
2024/01/05 02:07:55;;;;;;;5.97;1.63;;;6.60;99.90;;;;;;5025875;28;20183;-85
2024/01/05 02:10:21;;;;;;;11.43;2.10;;;6.60;99.90;;;;;;5021738;28;20200;-85
2024/01/05 02:12:47;;;;;;;5.53;1.90;;;6.60;99.90;;;;;;5023336;28;20269;-85
2024/01/05 02:15:12;;;;;;;7.40;1.73;;;6.60;99.90;;;;;;5024778;28;20241;-83
2024/01/05 02:17:38;;;;;;;6.30;1.80;;;6.70;99.90;;;;;;5026245;28;20179;-85
2024/01/05 02:20:04;;;;;;;5.30;1.90;;;6.80;99.90;;;;;;5030299;28;20594;-85
2024/01/05 02:22:33;;;;;;;6.77;1.87;;;6.80;99.90;;;;;;5021838;28;20184;-85
2024/01/05 02:24:59;;;;;;;6.13;1.80;;;6.80;99.90;;;;;;5023034;28;20210;-85
2024/01/05 02:27:25;;;;;;;6.27;1.60;;;6.70;99.90;;;;;;5025148;28;20237;-85
2024/01/05 02:29:51;;;;;;;8.07;1.77;;;6.80;99.90;;;;;;5025337;28;20197;-84
2024/01/05 02:32:17;;;;;;;5.17;1.60;;;6.80;99.90;;;;;;5021848;28;20175;-84
2024/01/05 02:34:43;;;;;;;5.97;1.77;;;6.80;99.90;;;;;;5021886;28;20249;-85
2024/01/05 02:37:09;;;;;;;6.63;1.90;;;6.80;99.90;;;;;;5026529;28;20261;-85
2024/01/05 02:39:35;;;;;;;7.20;1.87;;;6.90;99.90;;;;;;5027153;28;20218;-85
2024/01/05 02:42:01;;;;;;;5.03;1.80;;;6.80;99.90;;;;;;5020747;28;20185;-84
2024/01/05 02:44:26;;;;;;;5.73;1.93;;;6.80;99.90;;;;;;5030711;28;20181;-85
2024/01/05 02:46:52;;;;;;;6.20;1.83;;;6.80;99.90;;;;;;5024534;28;20210;-84
2024/01/05 02:49:17;;;;;;;5.60;2.17;;;6.80;99.90;;;;;;5024591;28;20202;-84
2024/01/05 02:51:43;;;;;;;9.03;2.03;;;6.80;99.90;;;;;;5026160;28;20189;-85
2024/01/05 02:54:09;;;;;;;5.03;2.00;;;6.80;99.90;;;;;;5023570;28;20190;-85
2024/01/05 02:56:35;;;;;;;6.93;1.80;;;6.80;99.90;;;;;;5019464;28;20174;-85
2024/01/05 02:59:03;;;;;;;9.30;1.60;;;6.70;99.90;;;;;;5022662;28;20205;-84
2024/01/05 03:01:29;;;;;;;5.07;1.90;;;6.70;99.90;;;;;;5021020;28;20179;-84
2024/01/05 03:03:54;;;;;;;8.33;2.03;;;6.80;99.90;;;;;;5031351;28;20190;-85
2024/01/05 03:06:20;;;;;;;5.00;1.80;;;6.70;99.90;;;;;;5028292;28;20202;-85
2024/01/05 03:08:46;;;;;;;6.83;1.77;;;6.60;99.90;;;;;;5029859;28;20182;-85
2024/01/05 03:11:12;;;;;;;7.30;1.70;;;6.60;99.90;;;;;;5021100;28;20186;-85
2024/01/05 03:13:38;;;;;;;7.60;2.73;;;6.60;99.90;;;;;;5021033;28;20175;-85
2024/01/05 03:16:04;;;;;;;4.40;1.70;;;6.60;99.90;;;;;;5022454;28;20178;-84
2024/01/05 03:18:30;;;;;;;5.47;1.67;;;6.50;99.90;;;;;;5021198;28;20179;-85
2024/01/05 03:20:56;;;;;;;4.00;1.90;;;6.60;99.90;;;;;;5021570;28;20202;-84
2024/01/05 03:23:22;;;;;;;5.13;1.60;;;6.70;99.90;;;;;;5019875;28;20245;-84
2024/01/05 03:25:48;;;;;;;11.27;2.27;;;6.70;99.90;;;;;;5020073;28;20296;-84
2024/01/05 03:28:14;;;;;;;4.53;1.47;;;6.70;99.90;;;;;;5029047;28;20225;-83
2024/01/05 03:30:42;;;;;;;7.50;1.70;;;6.70;99.90;;;;;;5019376;28;20187;-85
2024/01/05 03:33:08;;;;;;;2.93;1.63;;;6.70;99.90;;;;;;5031209;28;20185;-84
2024/01/05 03:35:33;;;;;;;5.63;2.00;;;6.60;99.90;;;;;;5027759;28;20175;-85
2024/01/05 03:37:59;;;;;;;5.13;1.50;;;6.60;99.90;;;;;;5023763;28;20186;-85
2024/01/05 03:40:25;;;;;;;5.30;1.60;;;6.60;99.90;;;;;;5025259;28;20233;-84
2024/01/05 03:42:50;;;;;;;5.70;1.70;;;6.60;99.90;;;;;;5023197;28;20274;-83
2024/01/05 03:45:16;;;;;;;4.13;1.70;;;6.50;99.90;;;;;;5024184;28;20185;-84
2024/01/05 03:47:41;;;;;;;5.57;1.70;;;6.50;99.90;;;;;;5026151;28;20205;-83
2024/01/05 03:50:07;;;;;;;5.57;1.90;;;6.40;99.90;;;;;;5030565;28;20256;-84
2024/01/05 03:52:33;;;;;;;5.70;1.80;;;6.50;99.90;;;;;;5034118;28;20186;-85
2024/01/05 03:54:58;;;;;;;4.47;1.57;;;6.50;99.90;;;;;;5034143;28;20261;-84
2024/01/05 03:57:24;;;;;;;9.00;2.13;;;6.50;99.90;;;;;;5025343;28;20192;-84
2024/01/05 03:59:52;;;;;;;4.87;1.77;;;6.60;99.90;;;;;;5025232;28;20221;-81
2024/01/05 04:02:18;;;;;;;4.37;1.70;;;6.60;99.90;;;;;;5036710;28;20173;-84
2024/01/05 04:04:44;;;;;;;5.63;1.50;;;6.60;99.90;;;;;;5027244;28;20193;-82
2024/01/05 04:07:09;;;;;;;3.80;1.70;;;6.60;99.90;;;;;;5024186;28;20203;-85
2024/01/05 04:09:35;;;;;;;7.03;1.70;;;6.60;99.90;;;;;;5023253;28;20360;-85
2024/01/05 04:12:00;;;;;;;6.80;2.17;;;6.60;99.90;;;;;;5033590;28;20197;-85
2024/01/05 04:14:26;;;;;;;3.03;1.50;;;6.60;99.90;;;;;;5031246;28;20190;-83
2024/01/05 04:16:52;;;;;;;4.43;1.40;;;6.60;99.90;;;;;;5032964;28;20193;-83
2024/01/05 04:19:17;;;;;;;4.87;1.80;;;6.60;99.90;;;;;;5028744;28;20600;-84
2024/01/05 04:21:43;;;;;;;5.87;1.73;;;6.60;99.90;;;;;;5020252;28;20178;-85
2024/01/05 04:24:09;;;;;;;4.83;1.90;;;6.60;99.90;;;;;;5025661;28;20285;-85
2024/01/05 04:26:35;;;;;;;3.30;1.50;;;6.70;99.90;;;;;;5021739;28;20655;-84
2024/01/05 04:29:01;;;;;;;4.17;1.90;;;6.70;99.90;;;;;;5024803;28;20237;-84
2024/01/05 04:31:27;;;;;;;3.13;1.50;;;6.70;99.90;;;;;;5026316;28;20619;-84
2024/01/05 04:33:54;;;;;;;3.83;1.60;;;6.60;99.90;;;;;;5034315;28;20182;-84
2024/01/05 04:36:20;;;;;;;4.13;1.67;;;6.60;99.90;;;;;;5035874;28;20189;-84
2024/01/05 04:38:45;;;;;;;4.33;1.60;;;6.60;99.90;;;;;;5035991;28;20186;-84
2024/01/05 04:41:14;;;;;;;5.90;1.50;;;6.60;99.90;;;;;;5028454;28;20233;-84
2024/01/05 04:43:40;;;;;;;6.00;1.90;;;6.60;99.90;;;;;;5026241;28;20189;-85
2024/01/05 04:46:07;;;;;;;2.90;1.27;;;6.60;99.90;;;;;;5027427;28;20198;-84
2024/01/05 04:48:32;;;;;;;5.27;1.60;;;6.60;99.90;;;;;;5026265;28;20189;-84
2024/01/05 04:50:58;;;;;;;4.23;1.50;;;6.60;99.90;;;;;;5017589;28;20206;-85
2024/01/05 04:53:24;;;;;;;5.33;1.60;;;6.60;99.90;;;;;;5029576;28;20190;-84
2024/01/05 04:55:49;;;;;;;3.87;1.50;;;6.60;99.90;;;;;;5022562;28;20178;-87
2024/01/05 04:58:15;;;;;;;4.87;1.80;;;6.60;99.90;;;;;;5023590;28;20210;-84
2024/01/05 05:00:41;;;;;;;5.10;1.60;;;6.60;99.90;;;;;;5023493;28;20570;-85
2024/01/05 05:03:06;;;;;;;4.83;1.57;;;6.60;99.90;;;;;;5021546;28;20201;-85
2024/01/05 05:05:32;;;;;;;5.33;1.60;;;6.60;99.90;;;;;;5019630;28;20183;-84
2024/01/05 05:07:58;;;;;;;5.67;1.80;;;6.60;99.90;;;;;;5034212;28;20189;-84
2024/01/05 05:10:23;;;;;;;4.80;1.80;;;6.60;99.90;;;;;;5035378;28;20279;-84
2024/01/05 05:12:50;;;;;;;5.63;1.87;;;6.60;99.90;;;;;;5033826;28;20268;-84
2024/01/05 05:15:16;;;;;;;6.47;2.00;;;6.60;99.90;;;;;;5029975;28;20186;-84
2024/01/05 05:17:41;;;;;;;5.03;1.60;;;6.60;99.90;;;;;;5023735;28;20183;-84
2024/01/05 05:20:07;;;;;;;5.80;1.43;;;6.60;99.90;;;;;;5024008;28;20214;-84
2024/01/05 05:22:33;;;;;;;4.37;1.83;;;6.70;99.90;;;;;;5033287;28;20186;-85
2024/01/05 05:24:59;;;;;;;5.03;1.50;;;6.60;99.90;;;;;;5015952;28;20270;-85
2024/01/05 05:27:24;;;;;;;4.43;1.30;;;6.70;99.90;;;;;;5026277;28;20275;-84
2024/01/05 05:29:50;;;;;;;5.57;1.70;;;6.70;99.90;;;;;;5026300;28;20206;-81
2024/01/05 05:32:16;;;;;;;3.60;1.57;;;6.70;99.90;;;;;;5017031;28;20189;-84
2024/01/05 05:34:43;;;;;;;4.60;1.40;;;6.70;99.90;;;;;;5026058;28;20295;-84
2024/01/05 05:37:08;;;;;;;5.23;1.50;;;6.70;99.90;;;;;;5024747;28;20239;-84
2024/01/05 05:39:34;;;;;;;7.47;1.47;;;6.70;99.90;;;;;;5026114;28;20222;-85
2024/01/05 05:42:00;;;;;;;6.17;1.90;;;6.70;99.90;;;;;;5024794;28;20196;-85
2024/01/05 05:44:25;;;;;;;5.30;1.27;;;6.70;99.90;;;;;;5029225;28;20261;-84
2024/01/05 05:46:51;;;;;;;5.27;1.43;;;6.60;99.90;;;;;;5022728;28;20199;-83
2024/01/05 05:49:16;;;;;;;5.77;1.50;;;6.70;99.90;;;;;;5025731;28;20248;-84
2024/01/05 05:51:42;;;;;;;7.13;1.50;;;6.70;99.90;;;;;;5024538;28;20219;-85
2024/01/05 05:54:08;;;;;;;4.70;1.20;;;6.70;99.90;;;;;;5018062;28;20186;-84
2024/01/05 05:56:33;;;;;;;3.13;1.33;;;6.70;99.90;;;;;;5033012;28;20178;-85
2024/01/05 05:58:59;;;;;;;3.17;1.10;;;6.70;99.90;;;;;;5031186;28;20628;-85
2024/01/05 06:01:24;;;;;;;3.70;1.27;;;6.70;99.90;;;;;;5020992;28;20175;-84
2024/01/05 06:03:50;;;;;;;2.63;1.10;;;6.70;99.90;;;;;;5029275;28;20178;-85
2024/01/05 06:06:21;;;;;;;3.83;1.33;;;6.70;99.90;;;;;;5033794;28;20194;-85
2024/01/05 06:08:47;;;;;;;2.53;1.33;;;6.60;99.90;;;;;;5031914;28;20170;-85
2024/01/05 06:11:16;;;;;;;4.83;1.60;;;6.60;99.90;;;;;;5024364;28;20183;-85
2024/01/05 06:13:41;;;;;;;3.13;1.40;;;6.60;99.90;;;;;;5025516;28;20178;-84
2024/01/05 06:16:07;;;;;;;3.37;1.37;;;6.70;99.90;;;;;;5015488;28;20184;-87
2024/01/05 06:18:33;;;;;;;5.57;1.43;;;6.70;99.90;;;;;;5024879;28;20186;-87
2024/01/05 06:21:00;;;;;;;2.90;1.20;;;6.80;90.90;;;;;;5022884;28;20209;-87
2024/01/05 06:23:25;;;;;;;5.47;1.50;;;6.80;65.80;;;;;;5024857;28;20266;-86
2024/01/05 06:25:51;;;;;;;4.13;1.57;;;6.90;14.30;;;;;;5023524;28;20681;-85
2024/01/05 06:28:17;;;;;;;4.40;1.50;;;6.90;1.00;;;;;;5029164;28;20186;-87
2024/01/05 06:30:42;;;;;;;6.90;2.27;;;6.90;1.00;;;;;;5021111;28;20203;-86
2024/01/05 06:33:08;;;;;;;4.17;1.30;;;6.90;1.00;;;;;;5023722;28;20193;-87
2024/01/05 06:35:33;;;;;;;3.97;1.67;;;6.90;1.00;;;;;;5023462;28;20178;-87
2024/01/05 06:37:59;;;;;;;4.00;1.37;;;6.90;36.20;;;;;;5021920;28;20272;-85
2024/01/05 06:40:25;;;;;;;3.43;1.30;;;7.00;1.00;;;;;;5017259;28;20292;-85
2024/01/05 06:42:50;;;;;;;3.77;1.10;;;7.00;1.00;;;;;;5023281;28;20186;-85
2024/01/05 06:45:16;;;;;;;3.50;1.30;;;7.00;1.00;;;;;;5020250;28;20179;-80
2024/01/05 06:47:42;;;;;;;2.93;1.23;;;7.00;1.00;;;;;;5020881;28;20216;-82
2024/01/05 06:50:07;;;;;;;2.60;1.20;;;6.90;1.00;;;;;;5023118;28;20203;-81
2024/01/05 06:52:34;;;;;;;3.90;1.53;;;6.90;1.00;;;;;;5023428;28;20596;-81
2024/01/05 06:55:00;;;;;;;4.33;1.70;;;6.90;92.90;;;;;;5022216;28;20185;-84
2024/01/05 06:57:26;;;;;;;4.70;1.30;;;6.80;99.90;;;;;;5021375;28;20213;-84
2024/01/05 06:59:51;;;;;;;3.00;1.10;;;6.80;99.90;;;;;;5020020;28;20210;-83
2024/01/05 07:02:17;;;;;;;2.60;1.20;;;6.80;99.90;;;;;;5024717;28;20551;-82
2024/01/05 07:04:43;;;;;;;3.43;1.50;;;6.80;99.90;;;;;;5025617;28;20183;-85
2024/01/05 07:07:08;;;;;;;3.70;1.27;;;6.70;99.90;;;;;;5023308;28;20206;-86
2024/01/05 07:09:34;;;;;;;4.07;1.33;;;6.70;99.90;;;;;;5022943;28;20344;-82
2024/01/05 07:11:59;;;;;;;3.27;1.30;;;6.60;99.90;;;;;;5021671;28;20178;-87
2024/01/05 07:14:27;;;;;;;5.00;1.30;;;6.70;69.20;;;;;;5021006;28;20194;-86
2024/01/05 07:16:56;;;;;;;4.23;1.50;;;6.60;99.90;;;;;;5020970;28;20174;-85
2024/01/05 07:19:22;;;;;;;4.20;1.27;;;6.60;99.90;;;;;;5019795;28;20225;-85
2024/01/05 07:21:48;;;;;;;2.93;1.27;;;6.60;99.90;;;;;;5020685;28;20253;-86
2024/01/05 07:24:15;;;;;;;6.20;1.40;;;6.60;99.90;;;;;;5022684;28;20684;-85
2024/01/05 07:26:41;;;;;;;5.47;1.50;;;6.60;34.10;;;;;;5033461;28;20229;-85
2024/01/05 07:29:06;;;;;;;6.20;1.33;;;6.70;29.70;;;;;;5025574;28;20228;-85
2024/01/05 07:31:32;;;;;;;3.73;1.23;;;6.70;22.30;;;;;;5021003;28;20175;-86
2024/01/05 07:33:58;;;;;;;3.70;1.30;;;6.70;4.20;;;;;;5025797;28;20555;-84
2024/01/05 07:36:23;;;;;;;2.60;1.30;;;6.70;1.00;;;;;;5023231;28;20222;-85
2024/01/05 07:38:49;;;;;;;1.97;1.20;;;6.70;25.80;;;;;;5024250;28;20182;-83
2024/01/05 07:41:18;;;;;;;3.93;1.40;;;6.60;99.90;;;;;;5027676;28;20178;-85
2024/01/05 07:43:44;;;;;;;5.67;1.50;;;6.70;72.60;;;;;;5026641;28;20228;-85
2024/01/05 07:46:10;;;;;;;2.23;1.43;;;6.70;60.50;;;;;;5026564;28;20644;-86
2024/01/05 07:48:39;;;;;;;4.60;1.60;;;6.70;99.90;;;;;;5035457;28;20173;-83
2024/01/05 07:51:05;;;;;;;5.60;1.30;;;6.70;98.70;;;;;;5027517;28;20178;-86
2024/01/05 07:53:30;;;;;;;7.43;1.40;;;6.60;99.90;;;;;;5026500;28;20178;-85
2024/01/05 07:55:59;;;;;;;2.97;1.30;;;6.70;99.90;;;;;;5027116;28;20178;-85
2024/01/05 07:58:25;;;;;;;3.03;1.30;;;6.70;99.90;;;;;;5023115;28;20193;-84
2024/01/05 08:00:50;;;;;;;5.00;1.60;;;6.70;99.90;;;;;;5022446;28;20198;-88
2024/01/05 08:03:16;;;;;;;3.33;1.50;;;6.70;99.90;;;;;;5027191;28;20183;-84
2024/01/05 08:05:42;;;;;;;3.37;1.40;;;6.60;99.90;;;;;;5026190;28;20186;-85
2024/01/05 08:08:07;;;;;;;5.37;1.70;;;6.70;99.90;;;;;;5027453;28;20189;-85
2024/01/05 08:10:33;;;;;;;4.23;1.53;;;6.70;99.90;;;;;;5027308;28;20198;-85
2024/01/05 08:13:01;;;;;;;5.67;1.50;;;6.70;99.90;;;;;;5026339;28;20181;-85
2024/01/05 08:15:26;;;;;;;3.50;1.60;;;6.70;99.90;;;;;;5027401;28;20547;-84
2024/01/05 08:17:52;;;;;;;4.63;1.50;;;6.70;99.90;;;;;;5035478;28;20277;-85
2024/01/05 08:20:18;;;;;;;4.60;1.70;;;6.70;99.90;;;;;;5026916;28;20456;-84
2024/01/05 08:22:43;;;;;;;5.15;1.67;;;6.70;99.90;;;;;;5017818;28;20459;-86
2024/01/05 08:25:09;;;;;;;5.67;1.40;;;6.70;99.90;;;;;;5025393;28;20179;-85
2024/01/05 08:27:35;;;;;;;5.10;1.57;;;6.80;99.90;;;;;;5027289;28;20207;-85
2024/01/05 08:30:00;;;;;;;2.83;1.50;;;6.80;99.90;;;;;;5024264;28;20337;-86
2024/01/05 08:32:26;;;;;;;8.37;2.17;;;6.70;99.90;;;;;;5022775;28;20167;-85
2024/01/05 08:34:51;;;;;;;4.23;2.20;;;6.70;99.90;;;;;;5022692;28;20186;-82
2024/01/05 08:37:17;;;;;;;4.00;1.57;;;6.70;99.90;;;;;;5022997;28;20582;-85
2024/01/05 08:39:42;;;;;;;4.90;1.87;;;6.70;99.90;;;;;;5029607;28;20210;-84
2024/01/05 08:42:08;;;;;;;2.90;1.57;;;6.80;99.90;;;;;;5024494;28;20181;-84
2024/01/05 08:44:35;;;;;;;3.60;1.33;;;6.70;99.90;;;;;;5029210;28;20228;-86
2024/01/05 08:47:01;;;;;;;2.30;1.20;;;6.80;99.90;;;;;;5025368;28;20225;-86
2024/01/05 08:49:26;;;;;;;2.53;1.40;;;6.80;99.90;;;;;;5023456;28;20236;-82
2024/01/05 08:51:53;;;;;;;4.13;1.60;;;6.70;99.90;;;;;;5022232;28;20206;-85
2024/01/05 08:54:19;;;;;;;4.47;1.90;;;6.70;99.90;;;;;;5025083;28;20235;-84
2024/01/05 08:56:44;;;;;;;5.67;2.27;;;6.70;99.90;;;;;;5019303;28;20201;-85
2024/01/05 08:59:11;;;;;;;6.23;2.03;;;6.70;99.90;;;;;;5014914;28;20201;-86
2024/01/05 09:01:37;;;;;;;2.67;1.33;;;6.70;99.90;;;;;;5023057;28;20190;-86
2024/01/05 09:04:05;;;;;;;5.33;2.03;;;6.70;99.90;;;;;;5023244;28;20182;-87
2024/01/05 09:06:32;;;;;;;4.47;1.90;;;6.70;99.90;;;;;;5020968;28;20208;-84
2024/01/05 09:08:58;;;;;;;4.80;3.00;;;6.70;99.90;;;;;;5022379;28;20206;-85
2024/01/05 09:11:24;;;;;;;5.60;3.40;;;6.70;99.90;;;;;;5021898;28;20662;-85
2024/01/05 09:13:50;;;;;;;5.70;2.20;;;6.70;99.90;;;;;;5029347;28;20177;-85
2024/01/05 09:16:15;;;;;;;6.97;2.07;;;6.80;99.90;;;;;;5032877;28;20185;-85
2024/01/05 09:18:42;;;;;;;4.80;1.90;;;6.80;99.90;;;;;;5026168;28;20178;-85
2024/01/05 09:21:08;;;;;;;5.17;2.20;;;6.80;99.90;;;;;;5024700;28;20178;-86
2024/01/05 09:23:34;;;;;;;6.77;2.30;;;6.70;99.90;;;;;;5025987;28;20208;-86
2024/01/05 09:26:00;;;;;;;2.90;1.70;;;6.80;99.90;;;;;;5023500;28;20202;-85
2024/01/05 09:28:25;;;;;;;5.07;2.13;;;6.80;99.90;;;;;;5021039;28;20178;-85
2024/01/05 09:30:51;;;;;;;4.77;2.87;;;6.70;99.90;;;;;;5028697;28;20194;-85
2024/01/05 09:33:16;;;;;;;5.97;2.23;;;6.70;99.90;;;;;;5025904;28;20198;-85
2024/01/05 09:35:42;;;;;;;6.50;3.27;;;6.80;99.90;;;;;;5025833;28;20557;-85
2024/01/05 09:38:08;;;;;;;6.47;3.70;;;6.70;99.90;;;;;;5023905;28;20179;-85
2024/01/05 09:40:34;;;;;;;6.57;3.40;;;6.80;99.90;;;;;;5029897;28;20222;-87
2024/01/05 09:43:02;;;;;;;4.93;1.80;;;6.80;99.90;;;;;;5031466;28;20171;-85
2024/01/05 09:45:28;;;;;;;4.80;2.27;;;6.80;99.90;;;;;;5027141;28;20175;-86
2024/01/05 09:48:00;;;;;;;4.30;1.70;;;6.70;99.90;;;;;;5028982;28;20564;-86
2024/01/05 09:50:26;;;;;;;5.47;1.93;;;6.70;99.90;;;;;;5025101;28;20202;-86
2024/01/05 09:52:52;;;;;;;3.90;2.23;;;6.70;99.90;;;;;;5033204;28;20170;-86
2024/01/05 09:55:18;;;;;;;3.40;1.97;;;6.70;99.90;;;;;;5030044;28;20190;-86
2024/01/05 09:57:45;;;;;;;7.60;2.00;;;6.70;99.90;;;;;;5021530;28;20192;-85
2024/01/05 10:00:15;;;;;;;5.30;2.20;;;6.80;99.90;;;;;;5024263;28;20209;-86
2024/01/05 10:02:57;;;;;;;6.67;1.90;;;6.80;99.90;;;;;;5026888;28;20645;-86
2024/01/05 10:05:23;;;;;;;4.10;1.70;;;7.00;99.90;;;;;;5032292;28;20589;-86
2024/01/05 10:07:48;;;;;;;4.87;1.60;;;7.10;99.90;;;;;;5032247;28;20202;-86
2024/01/05 10:10:14;;;;;;;2.77;1.80;;;7.20;99.90;;;;;;5033143;28;20210;-85
2024/01/05 10:12:40;;;;;;;4.93;1.93;;;7.30;99.90;;;;;;5030876;28;20197;-86
2024/01/05 10:15:06;;;;;;;5.27;2.10;;;7.40;99.90;;;;;;5013536;28;20171;-86
2024/01/05 10:17:35;;;;;;;6.03;2.40;;;7.60;99.90;;;;;;5012511;28;20175;-86
2024/01/05 10:20:17;;;;;;;5.83;2.20;;;7.60;99.90;;;;;;5013196;28;20198;-86
2024/01/05 10:22:46;;;;;;;3.90;2.30;;;7.60;99.90;;;;;;5028572;28;20727;-86
2024/01/05 10:25:23;;;;;;;5.20;2.00;;;7.60;99.90;;;;;;5013078;28;20229;-85
2024/01/05 10:27:50;;;;;;;5.27;2.10;;;7.50;99.90;;;;;;5013507;28;20314;-84
2024/01/05 10:30:28;;;;;;;4.43;1.87;;;7.40;99.90;;;;;;5013312;28;20681;-84
2024/01/05 10:33:07;;;;;;;3.67;1.93;;;7.40;99.90;;;;;;5013539;28;20207;-84
2024/01/05 10:35:34;;;;;;;4.23;2.10;;;7.40;99.90;;;;;;5012051;28;20179;-84
2024/01/05 10:38:17;;;;;;;3.10;1.60;;;7.40;99.90;;;;;;5013399;28;20554;-85
2024/01/05 10:40:43;;;;;;;4.97;1.80;;;7.40;99.90;;;;;;5020499;28;20233;-84
2024/01/05 10:43:12;;;;;;;3.97;1.50;;;7.40;99.90;;;;;;5042578;22;20225;-82
2024/01/05 10:45:42;;;;;;;4.77;1.57;;;7.40;99.90;;;;;;5032748;28;20248;-82
2024/01/05 10:48:10;;;;;;;5.13;1.63;;;7.40;99.90;;;;;;5033006;28;20261;-82
2024/01/05 10:50:41;;;;;;;3.63;1.60;;;7.30;99.90;;;;;;5032532;28;20314;-79
2024/01/05 10:53:08;;;;;;;4.30;1.77;;;7.40;99.90;;;;;;5030931;28;20671;-82
2024/01/05 10:55:35;;;;;;;3.77;1.37;;;7.40;99.90;;;;;;5031558;28;20174;-81
2024/01/05 10:58:01;;;;;;;3.27;1.20;;;7.40;99.90;;;;;;5032478;28;20182;-83
2024/01/05 11:00:27;;;;;;;2.57;1.60;;;7.40;99.90;;;;;;5032621;28;20184;-80
2024/01/05 11:03:07;;;;;;;2.90;1.40;;;7.40;99.90;;;;;;5031467;28;20225;-80
2024/01/05 11:05:33;;;;;;;3.67;1.60;;;7.40;99.90;;;;;;5033319;28;20201;-81
2024/01/05 11:08:00;;;;;;;3.17;1.50;;;7.40;99.90;;;;;;5031720;28;20585;-80
2024/01/05 11:10:53;;;;;;;3.90;1.40;;;7.40;99.90;;;;;;5032094;28;20167;-81
2024/01/05 11:14:14;;;;;;;4.17;1.40;;;7.40;99.90;;;;;;5032931;28;20201;-81
2024/01/05 11:16:49;;;;;;;4.63;1.60;;;7.30;99.90;;;;;;4999985;28;20198;-81
2024/01/05 11:19:44;;;;;;;3.33;1.40;;;7.30;99.90;;;;;;5032614;28;20174;-84
2024/01/05 11:22:14;;;;;;;6.83;2.10;;;7.40;99.90;;;;;;5032419;28;20217;-85
2024/01/05 11:24:41;;;;;;;14.07;6.33;;;7.40;99.90;;;;;;5032129;28;20200;-86
2024/01/05 11:27:31;;;;;;;20.63;10.93;;;7.40;99.90;;;;;;5030437;28;20198;-87
2024/01/05 11:29:57;;;;;;;15.97;9.33;;;7.40;99.90;;;;;;5023911;28;20584;-87
2024/01/05 11:32:38;;;;;;;15.00;7.37;;;7.40;99.90;;;;;;5031030;28;20172;-83
2024/01/05 11:35:23;;;;;;;11.83;7.63;;;7.40;99.90;;;;;;5032719;28;20184;-83
2024/01/05 11:37:50;;;;;;;9.30;5.27;;;7.30;99.90;;;;;;5031122;28;20184;-84
2024/01/05 11:40:31;;;;;;;8.00;4.07;;;7.20;99.90;;;;;;5031060;28;20186;-84
2024/01/05 11:42:57;;;;;;;8.03;4.17;;;7.30;99.90;;;;;;5030823;28;20570;-83
2024/01/05 11:45:41;;;;;;;5.97;2.80;;;7.30;99.90;;;;;;5031443;28;20269;-83
2024/01/05 11:48:08;;;;;;;4.70;2.80;;;7.30;99.90;;;;;;5031216;28;20195;-84
2024/01/05 11:50:35;;;;;;;5.43;2.70;;;7.40;99.90;;;;;;5032154;28;20173;-83
2024/01/05 11:53:11;;;;;;;4.23;2.50;;;7.30;99.90;;;;;;5032782;28;20283;-83
2024/01/05 11:55:40;;;;;;;3.27;2.43;;;7.40;99.90;;;;;;5030991;28;20209;-83
2024/01/05 11:58:07;;;;;;;5.20;2.63;;;7.40;99.90;;;;;;5032160;28;20266;-84
2024/01/05 12:00:34;;;;;;;3.83;2.03;;;7.40;99.90;;;;;;5030710;28;20261;-84
2024/01/05 12:03:03;;;;;;;2.93;2.00;;;7.40;99.90;;;;;;5030849;28;20324;-83
2024/01/05 12:05:29;;;;;;;2.77;1.70;;;7.40;99.90;;;;;;5030694;28;20179;-83
2024/01/05 12:07:56;;;;;;;2.57;1.50;;;7.30;99.90;;;;;;5030478;28;20207;-83
2024/01/05 12:10:25;;;;;;;3.07;2.00;;;7.40;99.90;;;;;;5032225;28;20183;-84
2024/01/05 12:12:55;;;;;;;4.10;1.53;;;7.40;99.90;;;;;;5032347;28;20278;-84
2024/01/05 12:15:21;;;;;;;5.13;1.53;;;7.40;99.90;;;;;;5035716;28;20171;-84
2024/01/05 12:17:48;;;;;;;2.20;1.60;;;7.50;99.90;;;;;;5035550;28;20183;-83
2024/01/05 12:20:14;;;;;;;4.73;1.70;;;7.50;91.60;;;;;;5033904;28;20185;-83
2024/01/05 12:22:41;;;;;;;3.30;1.40;;;7.50;99.90;;;;;;5035429;28;20179;-84
2024/01/05 12:25:07;;;;;;;4.27;1.80;;;7.60;99.90;;;;;;5035404;28;20211;-84
2024/01/05 12:27:39;;;;;;;4.80;1.50;;;7.60;99.90;;;;;;5035574;28;20222;-83
2024/01/05 12:30:11;;;;;;;2.20;1.40;;;7.60;44.20;;;;;;5033942;28;20218;-84
2024/01/05 12:32:37;;;;;;;3.33;1.43;;;7.60;92.60;;;;;;5034158;28;20206;-83
2024/01/05 12:35:04;;;;;;;3.73;1.80;;;7.60;99.90;;;;;;5034954;28;20268;-84
2024/01/05 12:37:30;;;;;;;5.37;1.63;;;7.60;99.90;;;;;;5034213;28;20209;-84
2024/01/05 12:40:12;;;;;;;2.63;1.57;;;7.60;81.60;;;;;;5033914;28;20260;-84
2024/01/05 12:42:38;;;;;;;3.43;1.50;;;7.70;50.50;;;;;;5033804;28;20656;-83
2024/01/05 12:45:08;;;;;;;4.27;1.70;;;7.70;35.60;;;;;;5034948;28;20186;-84
2024/01/05 12:47:34;;;;;;;4.13;1.67;;;7.70;27.40;;;;;;5034659;28;20202;-83
2024/01/05 12:50:01;;;;;;;4.67;2.03;;;7.70;9.20;;;;;;5034892;28;20244;-84
2024/01/05 12:52:34;;;;;;;4.20;1.60;;;7.70;25.00;;;;;;5034985;28;20183;-83
2024/01/05 12:55:00;;;;;;;3.97;2.27;;;7.80;1.00;;;;;;5034748;28;20220;-84
2024/01/05 12:57:27;;;;;;;2.57;1.80;;;7.80;1.00;;;;;;5034717;28;20179;-84